sensor_id;sensor_type;location;lat;lon;timestamp;P1;durP1;ratioP1;P2;durP2;ratioP2
59308;SDS011;48433;53.016;-2.260;2022-09-03T00:02:18;15.25;;;7.05;;
59308;SDS011;48433;53.016;-2.260;2022-09-03T00:04:50;13.85;;;7.00;;
59308;SDS011;48433;53.016;-2.260;2022-09-03T00:07:34;13.75;;;7.40;;
59308;SDS011;48433;53.016;-2.260;2022-09-03T00:13:34;13.88;;;7.43;;
59308;SDS011;48433;53.016;-2.260;2022-09-03T00:16:06;16.92;;;7.63;;
59308;SDS011;48433;53.016;-2.260;2022-09-03T00:18:42;13.98;;;8.25;;
59308;SDS011;48433;53.016;-2.260;2022-09-03T00:21:37;21.77;;;7.63;;
59308;SDS011;48433;53.016;-2.260;2022-09-03T00:24:02;13.73;;;7.78;;
59308;SDS011;48433;53.016;-2.260;2022-09-03T00:26:37;15.38;;;9.13;;
59308;SDS011;48433;53.016;-2.260;2022-09-03T00:29:26;15.15;;;9.35;;
59308;SDS011;48433;53.016;-2.260;2022-09-03T00:32:02;15.00;;;8.25;;
59308;SDS011;48433;53.016;-2.260;2022-09-03T00:35:03;15.57;;;7.80;;
59308;SDS011;48433;53.016;-2.260;2022-09-03T00:37:35;15.73;;;8.10;;
59308;SDS011;48433;53.016;-2.260;2022-09-03T00:40:04;11.63;;;8.73;;
59308;SDS011;48433;53.016;-2.260;2022-09-03T00:42:55;14.20;;;8.52;;
59308;SDS011;48433;53.016;-2.260;2022-09-03T00:46:04;17.02;;;8.95;;
59308;SDS011;48433;53.016;-2.260;2022-09-03T00:48:38;12.95;;;8.85;;
59308;SDS011;48433;53.016;-2.260;2022-09-03T01:30:04;16.85;;;10.90;;
59308;SDS011;48433;53.016;-2.260;2022-09-03T01:35:33;17.55;;;12.48;;
59308;SDS011;48433;53.016;-2.260;2022-09-03T01:40:56;17.92;;;12.68;;
59308;SDS011;48433;53.016;-2.260;2022-09-03T01:43:56;16.73;;;12.27;;
59308;SDS011;48433;53.016;-2.260;2022-09-03T01:46:35;21.55;;;14.57;;
59308;SDS011;48433;53.016;-2.260;2022-09-03T01:52:12;21.27;;;13.70;;
59308;SDS011;48433;53.016;-2.260;2022-09-03T02:00:17;20.35;;;15.68;;
59308;SDS011;48433;53.016;-2.260;2022-09-03T02:02:49;18.60;;;15.65;;
59308;SDS011;48433;53.016;-2.260;2022-09-03T02:05:19;23.13;;;14.57;;
59308;SDS011;48433;53.016;-2.260;2022-09-03T02:07:59;21.50;;;15.32;;
59308;SDS011;48433;53.016;-2.260;2022-09-03T02:10:28;19.02;;;13.57;;
59308;SDS011;48433;53.016;-2.260;2022-09-03T02:13:03;22.95;;;14.45;;
59308;SDS011;48433;53.016;-2.260;2022-09-03T02:15:34;18.77;;;15.18;;
59308;SDS011;48433;53.016;-2.260;2022-09-03T02:18:05;20.48;;;14.27;;
59308;SDS011;48433;53.016;-2.260;2022-09-03T02:20:37;18.83;;;13.98;;
59308;SDS011;48433;53.016;-2.260;2022-09-03T02:23:06;21.00;;;13.88;;
59308;SDS011;48433;53.016;-2.260;2022-09-03T02:25:37;19.55;;;15.45;;
59308;SDS011;48433;53.016;-2.260;2022-09-03T02:28:14;18.35;;;13.75;;
59308;SDS011;48433;53.016;-2.260;2022-09-03T02:30:43;20.45;;;14.48;;
59308;SDS011;48433;53.016;-2.260;2022-09-03T02:33:11;17.10;;;14.65;;
59308;SDS011;48433;53.016;-2.260;2022-09-03T02:35:39;20.55;;;15.50;;
59308;SDS011;48433;53.016;-2.260;2022-09-03T02:38:11;22.73;;;15.20;;
59308;SDS011;48433;53.016;-2.260;2022-09-03T02:40:45;23.95;;;16.33;;
59308;SDS011;48433;53.016;-2.260;2022-09-03T02:43:16;20.30;;;14.63;;
59308;SDS011;48433;53.016;-2.260;2022-09-03T02:45:53;21.98;;;15.73;;
59308;SDS011;48433;53.016;-2.260;2022-09-03T02:48:25;20.08;;;16.25;;
59308;SDS011;48433;53.016;-2.260;2022-09-03T02:50:53;22.02;;;16.95;;
59308;SDS011;48433;53.016;-2.260;2022-09-03T02:53:21;21.35;;;16.67;;
59308;SDS011;48433;53.016;-2.260;2022-09-03T02:55:49;25.83;;;16.70;;
59308;SDS011;48433;53.016;-2.260;2022-09-03T02:58:16;24.45;;;18.30;;
59308;SDS011;48433;53.016;-2.260;2022-09-03T03:00:44;20.38;;;17.27;;
59308;SDS011;48433;53.016;-2.260;2022-09-03T03:03:11;21.80;;;17.73;;
59308;SDS011;48433;53.016;-2.260;2022-09-03T03:05:47;22.42;;;18.58;;
59308;SDS011;48433;53.016;-2.260;2022-09-03T03:08:24;25.00;;;18.10;;
59308;SDS011;48433;53.016;-2.260;2022-09-03T03:10:54;24.67;;;18.70;;
59308;SDS011;48433;53.016;-2.260;2022-09-03T03:13:28;26.05;;;20.05;;
59308;SDS011;48433;53.016;-2.260;2022-09-03T03:15:57;22.30;;;18.30;;
59308;SDS011;48433;53.016;-2.260;2022-09-03T03:18:25;24.27;;;19.17;;
59308;SDS011;48433;53.016;-2.260;2022-09-03T03:20:54;27.17;;;19.88;;
59308;SDS011;48433;53.016;-2.260;2022-09-03T03:23:22;25.92;;;19.67;;
59308;SDS011;48433;53.016;-2.260;2022-09-03T03:25:49;24.17;;;19.45;;
59308;SDS011;48433;53.016;-2.260;2022-09-03T03:28:17;24.15;;;18.65;;
59308;SDS011;48433;53.016;-2.260;2022-09-03T03:30:45;25.27;;;19.10;;
59308;SDS011;48433;53.016;-2.260;2022-09-03T03:33:15;27.88;;;19.27;;
59308;SDS011;48433;53.016;-2.260;2022-09-03T03:35:42;29.75;;;20.25;;
59308;SDS011;48433;53.016;-2.260;2022-09-03T03:38:10;27.15;;;20.50;;
59308;SDS011;48433;53.016;-2.260;2022-09-03T03:40:38;30.98;;;21.98;;
59308;SDS011;48433;53.016;-2.260;2022-09-03T03:43:05;24.23;;;20.75;;
59308;SDS011;48433;53.016;-2.260;2022-09-03T03:45:33;27.05;;;21.63;;
59308;SDS011;48433;53.016;-2.260;2022-09-03T03:48:01;25.38;;;20.45;;
59308;SDS011;48433;53.016;-2.260;2022-09-03T03:50:28;35.38;;;21.58;;
59308;SDS011;48433;53.016;-2.260;2022-09-03T03:52:59;31.42;;;21.65;;
59308;SDS011;48433;53.016;-2.260;2022-09-03T03:55:27;24.00;;;20.90;;
59308;SDS011;48433;53.016;-2.260;2022-09-03T03:58:01;26.13;;;22.42;;
59308;SDS011;48433;53.016;-2.260;2022-09-03T04:00:28;24.67;;;20.85;;
59308;SDS011;48433;53.016;-2.260;2022-09-03T04:02:57;25.20;;;20.83;;
59308;SDS011;48433;53.016;-2.260;2022-09-03T04:05:25;26.15;;;22.80;;
59308;SDS011;48433;53.016;-2.260;2022-09-03T04:08:02;25.67;;;21.73;;
59308;SDS011;48433;53.016;-2.260;2022-09-03T04:10:30;32.70;;;22.85;;
59308;SDS011;48433;53.016;-2.260;2022-09-03T04:12:57;27.73;;;21.92;;
59308;SDS011;48433;53.016;-2.260;2022-09-03T04:15:25;28.55;;;22.05;;
59308;SDS011;48433;53.016;-2.260;2022-09-03T04:17:53;24.98;;;21.23;;
59308;SDS011;48433;53.016;-2.260;2022-09-03T04:20:21;25.77;;;22.92;;
59308;SDS011;48433;53.016;-2.260;2022-09-03T04:22:48;32.15;;;23.33;;
59308;SDS011;48433;53.016;-2.260;2022-09-03T04:25:18;26.08;;;22.70;;
59308;SDS011;48433;53.016;-2.260;2022-09-03T04:27:45;28.42;;;22.77;;
59308;SDS011;48433;53.016;-2.260;2022-09-03T04:30:13;29.02;;;23.88;;
59308;SDS011;48433;53.016;-2.260;2022-09-03T04:32:41;26.85;;;22.10;;
59308;SDS011;48433;53.016;-2.260;2022-09-03T04:35:22;26.77;;;23.90;;
59308;SDS011;48433;53.016;-2.260;2022-09-03T04:37:51;30.35;;;22.50;;
59308;SDS011;48433;53.016;-2.260;2022-09-03T04:40:21;28.67;;;23.15;;
59308;SDS011;48433;53.016;-2.260;2022-09-03T04:42:48;32.03;;;23.05;;
59308;SDS011;48433;53.016;-2.260;2022-09-03T04:45:16;29.42;;;23.92;;
59308;SDS011;48433;53.016;-2.260;2022-09-03T04:47:54;29.40;;;24.98;;
59308;SDS011;48433;53.016;-2.260;2022-09-03T04:50:23;30.58;;;24.48;;
59308;SDS011;48433;53.016;-2.260;2022-09-03T04:53:02;32.63;;;24.98;;
59308;SDS011;48433;53.016;-2.260;2022-09-03T04:55:35;29.75;;;24.48;;
59308;SDS011;48433;53.016;-2.260;2022-09-03T04:58:03;29.80;;;25.88;;
59308;SDS011;48433;53.016;-2.260;2022-09-03T05:00:35;35.65;;;27.10;;
59308;SDS011;48433;53.016;-2.260;2022-09-03T05:03:03;33.38;;;25.25;;
59308;SDS011;48433;53.016;-2.260;2022-09-03T05:05:31;32.97;;;27.85;;
59308;SDS011;48433;53.016;-2.260;2022-09-03T05:08:02;35.40;;;27.80;;
59308;SDS011;48433;53.016;-2.260;2022-09-03T05:10:30;33.38;;;27.88;;
59308;SDS011;48433;53.016;-2.260;2022-09-03T05:12:58;30.77;;;26.70;;
59308;SDS011;48433;53.016;-2.260;2022-09-03T05:15:28;39.22;;;28.40;;
59308;SDS011;48433;53.016;-2.260;2022-09-03T05:18:00;35.70;;;29.50;;
59308;SDS011;48433;53.016;-2.260;2022-09-03T05:20:29;36.92;;;28.88;;
59308;SDS011;48433;53.016;-2.260;2022-09-03T05:23:01;33.60;;;28.77;;
59308;SDS011;48433;53.016;-2.260;2022-09-03T05:25:32;39.38;;;29.88;;
59308;SDS011;48433;53.016;-2.260;2022-09-03T05:28:00;35.28;;;29.10;;
59308;SDS011;48433;53.016;-2.260;2022-09-03T05:30:28;40.22;;;30.08;;
59308;SDS011;48433;53.016;-2.260;2022-09-03T05:32:56;36.10;;;29.58;;
59308;SDS011;48433;53.016;-2.260;2022-09-03T05:35:24;41.38;;;31.55;;
59308;SDS011;48433;53.016;-2.260;2022-09-03T05:37:56;39.17;;;31.88;;
59308;SDS011;48433;53.016;-2.260;2022-09-03T05:40:23;39.08;;;30.85;;
59308;SDS011;48433;53.016;-2.260;2022-09-03T05:42:54;40.13;;;32.85;;
59308;SDS011;48433;53.016;-2.260;2022-09-03T05:45:24;36.08;;;31.20;;
59308;SDS011;48433;53.016;-2.260;2022-09-03T05:47:52;40.63;;;34.15;;
59308;SDS011;48433;53.016;-2.260;2022-09-03T05:50:19;39.00;;;33.47;;
59308;SDS011;48433;53.016;-2.260;2022-09-03T05:52:47;40.47;;;33.95;;
59308;SDS011;48433;53.016;-2.260;2022-09-03T05:55:15;45.65;;;34.60;;
59308;SDS011;48433;53.016;-2.260;2022-09-03T05:57:50;40.05;;;33.08;;
59308;SDS011;48433;53.016;-2.260;2022-09-03T06:00:18;45.22;;;34.80;;
59308;SDS011;48433;53.016;-2.260;2022-09-03T06:02:52;42.47;;;34.20;;
59308;SDS011;48433;53.016;-2.260;2022-09-03T06:05:20;43.35;;;34.28;;
59308;SDS011;48433;53.016;-2.260;2022-09-03T06:07:48;45.30;;;34.33;;
59308;SDS011;48433;53.016;-2.260;2022-09-03T06:10:16;40.47;;;33.03;;
59308;SDS011;48433;53.016;-2.260;2022-09-03T06:12:50;42.08;;;33.63;;
59308;SDS011;48433;53.016;-2.260;2022-09-03T06:15:18;45.13;;;34.05;;
59308;SDS011;48433;53.016;-2.260;2022-09-03T06:17:46;41.25;;;34.33;;
59308;SDS011;48433;53.016;-2.260;2022-09-03T06:20:13;43.38;;;35.25;;
59308;SDS011;48433;53.016;-2.260;2022-09-03T06:22:41;47.28;;;36.50;;
59308;SDS011;48433;53.016;-2.260;2022-09-03T06:25:14;41.33;;;33.53;;
59308;SDS011;48433;53.016;-2.260;2022-09-03T06:27:42;44.45;;;35.30;;
59308;SDS011;48433;53.016;-2.260;2022-09-03T06:30:11;40.58;;;33.88;;
59308;SDS011;48433;53.016;-2.260;2022-09-03T06:32:43;42.70;;;34.08;;
59308;SDS011;48433;53.016;-2.260;2022-09-03T06:35:11;44.55;;;33.47;;
59308;SDS011;48433;53.016;-2.260;2022-09-03T06:37:39;43.53;;;34.53;;
59308;SDS011;48433;53.016;-2.260;2022-09-03T06:40:08;45.63;;;34.38;;
59308;SDS011;48433;53.016;-2.260;2022-09-03T06:42:39;43.97;;;33.37;;
59308;SDS011;48433;53.016;-2.260;2022-09-03T06:45:12;43.08;;;33.92;;
59308;SDS011;48433;53.016;-2.260;2022-09-03T06:47:40;40.55;;;33.78;;
59308;SDS011;48433;53.016;-2.260;2022-09-03T06:50:07;44.38;;;35.00;;
59308;SDS011;48433;53.016;-2.260;2022-09-03T06:52:36;44.28;;;36.25;;
59308;SDS011;48433;53.016;-2.260;2022-09-03T06:55:03;40.30;;;34.03;;
59308;SDS011;48433;53.016;-2.260;2022-09-03T06:57:31;43.95;;;34.58;;
59308;SDS011;48433;53.016;-2.260;2022-09-03T06:59:59;43.83;;;33.08;;
59308;SDS011;48433;53.016;-2.260;2022-09-03T07:02:30;42.53;;;34.83;;
59308;SDS011;48433;53.016;-2.260;2022-09-03T07:04:59;42.22;;;34.35;;
59308;SDS011;48433;53.016;-2.260;2022-09-03T07:07:27;40.25;;;34.40;;
59308;SDS011;48433;53.016;-2.260;2022-09-03T07:09:55;41.95;;;34.28;;
59308;SDS011;48433;53.016;-2.260;2022-09-03T07:12:22;44.15;;;33.92;;
59308;SDS011;48433;53.016;-2.260;2022-09-03T07:14:50;41.88;;;33.97;;
59308;SDS011;48433;53.016;-2.260;2022-09-03T07:17:19;43.47;;;34.40;;
59308;SDS011;48433;53.016;-2.260;2022-09-03T07:19:47;43.80;;;35.88;;
59308;SDS011;48433;53.016;-2.260;2022-09-03T07:22:14;41.28;;;34.17;;
59308;SDS011;48433;53.016;-2.260;2022-09-03T07:24:42;46.78;;;34.85;;
59308;SDS011;48433;53.016;-2.260;2022-09-03T07:27:12;44.90;;;36.03;;
59308;SDS011;48433;53.016;-2.260;2022-09-03T07:29:41;40.20;;;34.50;;
59308;SDS011;48433;53.016;-2.260;2022-09-03T07:32:08;44.53;;;34.67;;
59308;SDS011;48433;53.016;-2.260;2022-09-03T07:34:36;38.17;;;32.65;;
59308;SDS011;48433;53.016;-2.260;2022-09-03T07:37:04;39.80;;;33.60;;
59308;SDS011;48433;53.016;-2.260;2022-09-03T07:39:31;36.17;;;31.52;;
59308;SDS011;48433;53.016;-2.260;2022-09-03T07:41:59;39.72;;;32.65;;
59308;SDS011;48433;53.016;-2.260;2022-09-03T07:44:28;39.80;;;33.65;;
59308;SDS011;48433;53.016;-2.260;2022-09-03T07:46:56;40.75;;;32.72;;
59308;SDS011;48433;53.016;-2.260;2022-09-03T07:49:24;40.75;;;32.45;;
59308;SDS011;48433;53.016;-2.260;2022-09-03T07:51:52;41.78;;;34.13;;
59308;SDS011;48433;53.016;-2.260;2022-09-03T07:54:20;38.05;;;32.95;;
59308;SDS011;48433;53.016;-2.260;2022-09-03T07:56:49;38.65;;;32.08;;
59308;SDS011;48433;53.016;-2.260;2022-09-03T07:59:17;38.50;;;31.73;;
59308;SDS011;48433;53.016;-2.260;2022-09-03T08:01:46;35.35;;;31.35;;
59308;SDS011;48433;53.016;-2.260;2022-09-03T08:04:13;36.50;;;32.05;;
59308;SDS011;48433;53.016;-2.260;2022-09-03T08:06:41;44.30;;;31.80;;
59308;SDS011;48433;53.016;-2.260;2022-09-03T08:09:10;40.20;;;30.73;;
59308;SDS011;48433;53.016;-2.260;2022-09-03T08:11:40;34.87;;;30.33;;
59308;SDS011;48433;53.016;-2.260;2022-09-03T08:14:10;36.65;;;31.23;;
59308;SDS011;48433;53.016;-2.260;2022-09-03T08:16:43;38.05;;;31.20;;
59308;SDS011;48433;53.016;-2.260;2022-09-03T08:19:15;38.58;;;30.60;;
59308;SDS011;48433;53.016;-2.260;2022-09-03T08:21:47;32.90;;;29.00;;
59308;SDS011;48433;53.016;-2.260;2022-09-03T08:24:15;33.47;;;28.73;;
59308;SDS011;48433;53.016;-2.260;2022-09-03T08:26:46;32.65;;;28.42;;
59308;SDS011;48433;53.016;-2.260;2022-09-03T08:29:18;34.97;;;28.48;;
59308;SDS011;48433;53.016;-2.260;2022-09-03T08:31:47;31.52;;;28.13;;
59308;SDS011;48433;53.016;-2.260;2022-09-03T08:34:15;33.42;;;27.30;;
59308;SDS011;48433;53.016;-2.260;2022-09-03T08:36:44;30.55;;;26.08;;
59308;SDS011;48433;53.016;-2.260;2022-09-03T08:39:13;34.28;;;26.58;;
59308;SDS011;48433;53.016;-2.260;2022-09-03T08:58:05;27.65;;;24.20;;
59308;SDS011;48433;53.016;-2.260;2022-09-03T09:08:52;29.77;;;22.63;;
59308;SDS011;48433;53.016;-2.260;2022-09-03T09:12:14;28.10;;;21.90;;
59308;SDS011;48433;53.016;-2.260;2022-09-03T09:19:54;24.30;;;20.85;;
59308;SDS011;48433;53.016;-2.260;2022-09-03T09:22:27;27.67;;;22.00;;
59308;SDS011;48433;53.016;-2.260;2022-09-03T09:25:00;25.52;;;20.67;;
59308;SDS011;48433;53.016;-2.260;2022-09-03T09:27:35;24.60;;;19.27;;
59308;SDS011;48433;53.016;-2.260;2022-09-03T09:30:03;26.42;;;21.05;;
59308;SDS011;48433;53.016;-2.260;2022-09-03T09:32:32;24.42;;;20.60;;
59308;SDS011;48433;53.016;-2.260;2022-09-03T09:35:00;23.15;;;20.67;;
59308;SDS011;48433;53.016;-2.260;2022-09-03T09:37:28;26.65;;;20.30;;
59308;SDS011;48433;53.016;-2.260;2022-09-03T09:39:56;27.38;;;20.70;;
59308;SDS011;48433;53.016;-2.260;2022-09-03T09:42:26;23.60;;;20.02;;
59308;SDS011;48433;53.016;-2.260;2022-09-03T09:44:57;21.90;;;19.20;;
59308;SDS011;48433;53.016;-2.260;2022-09-03T09:47:37;23.98;;;19.85;;
59308;SDS011;48433;53.016;-2.260;2022-09-03T09:50:14;20.40;;;18.08;;
59308;SDS011;48433;53.016;-2.260;2022-09-03T09:52:58;20.17;;;17.48;;
59308;SDS011;48433;53.016;-2.260;2022-09-03T09:55:34;22.80;;;19.85;;
59308;SDS011;48433;53.016;-2.260;2022-09-03T09:58:04;20.75;;;17.52;;
59308;SDS011;48433;53.016;-2.260;2022-09-03T10:00:40;23.20;;;16.95;;
59308;SDS011;48433;53.016;-2.260;2022-09-03T10:03:09;20.75;;;16.75;;
59308;SDS011;48433;53.016;-2.260;2022-09-03T10:05:39;22.30;;;18.58;;
59308;SDS011;48433;53.016;-2.260;2022-09-03T10:08:19;21.38;;;16.52;;
59308;SDS011;48433;53.016;-2.260;2022-09-03T10:10:48;20.80;;;15.27;;
59308;SDS011;48433;53.016;-2.260;2022-09-03T10:13:25;15.98;;;13.00;;
59308;SDS011;48433;53.016;-2.260;2022-09-03T10:16:12;16.02;;;11.23;;
59308;SDS011;48433;53.016;-2.260;2022-09-03T10:18:57;15.38;;;10.43;;
59308;SDS011;48433;53.016;-2.260;2022-09-03T10:26:54;14.43;;;10.17;;
59308;SDS011;48433;53.016;-2.260;2022-09-03T10:29:22;13.38;;;10.13;;
59308;SDS011;48433;53.016;-2.260;2022-09-03T10:43:27;10.70;;;7.00;;
59308;SDS011;48433;53.016;-2.260;2022-09-03T10:46:27;11.00;;;6.57;;
59308;SDS011;48433;53.016;-2.260;2022-09-03T10:49:10;8.88;;;5.68;;
59308;SDS011;48433;53.016;-2.260;2022-09-03T10:54:51;8.68;;;4.90;;
59308;SDS011;48433;53.016;-2.260;2022-09-03T10:57:44;8.05;;;5.47;;
59308;SDS011;48433;53.016;-2.260;2022-09-03T11:00:18;10.65;;;6.40;;
59308;SDS011;48433;53.016;-2.260;2022-09-03T11:08:38;9.27;;;5.95;;
59308;SDS011;48433;53.016;-2.260;2022-09-03T11:12:03;8.77;;;5.72;;
59308;SDS011;48433;53.016;-2.260;2022-09-03T11:14:14;8.00;;;5.57;;
59308;SDS011;48433;53.016;-2.260;2022-09-03T11:16:50;9.43;;;5.35;;
59308;SDS011;48433;53.016;-2.260;2022-09-03T11:19:24;9.88;;;6.05;;
59308;SDS011;48433;53.016;-2.260;2022-09-03T11:21:59;10.27;;;5.60;;
59308;SDS011;48433;53.016;-2.260;2022-09-03T11:24:27;11.88;;;5.05;;
59308;SDS011;48433;53.016;-2.260;2022-09-03T11:27:19;9.02;;;4.75;;
59308;SDS011;48433;53.016;-2.260;2022-09-03T11:30:04;9.27;;;5.45;;
59308;SDS011;48433;53.016;-2.260;2022-09-03T11:32:44;6.72;;;4.45;;
59308;SDS011;48433;53.016;-2.260;2022-09-03T11:37:59;9.00;;;4.35;;
59308;SDS011;48433;53.016;-2.260;2022-09-03T11:40:32;8.43;;;4.32;;
59308;SDS011;48433;53.016;-2.260;2022-09-03T11:43:06;9.18;;;4.95;;
59308;SDS011;48433;53.016;-2.260;2022-09-03T11:45:39;8.50;;;4.47;;
59308;SDS011;48433;53.016;-2.260;2022-09-03T11:48:17;7.95;;;5.25;;
59308;SDS011;48433;53.016;-2.260;2022-09-03T11:50:54;7.90;;;5.45;;
59308;SDS011;48433;53.016;-2.260;2022-09-03T11:53:24;8.07;;;5.28;;
59308;SDS011;48433;53.016;-2.260;2022-09-03T11:56:09;7.70;;;4.65;;
59308;SDS011;48433;53.016;-2.260;2022-09-03T11:58:43;7.72;;;5.40;;
59308;SDS011;48433;53.016;-2.260;2022-09-03T12:01:15;8.65;;;5.63;;
59308;SDS011;48433;53.016;-2.260;2022-09-03T12:03:50;7.60;;;4.95;;
59308;SDS011;48433;53.016;-2.260;2022-09-03T12:15:25;8.75;;;4.40;;
59308;SDS011;48433;53.016;-2.260;2022-09-03T12:18:30;8.23;;;4.93;;
59308;SDS011;48433;53.016;-2.260;2022-09-03T12:21:01;8.68;;;5.40;;
59308;SDS011;48433;53.016;-2.260;2022-09-03T12:23:32;8.05;;;5.15;;
59308;SDS011;48433;53.016;-2.260;2022-09-03T12:26:11;6.93;;;4.55;;
59308;SDS011;48433;53.016;-2.260;2022-09-03T12:28:42;9.65;;;4.70;;
59308;SDS011;48433;53.016;-2.260;2022-09-03T12:34:09;8.23;;;5.50;;
59308;SDS011;48433;53.016;-2.260;2022-09-03T12:36:45;9.77;;;5.65;;
59308;SDS011;48433;53.016;-2.260;2022-09-03T12:39:22;10.18;;;6.15;;
59308;SDS011;48433;53.016;-2.260;2022-09-03T12:42:12;8.95;;;5.72;;
59308;SDS011;48433;53.016;-2.260;2022-09-03T12:44:47;10.40;;;5.95;;
59308;SDS011;48433;53.016;-2.260;2022-09-03T12:47:16;9.32;;;5.75;;
59308;SDS011;48433;53.016;-2.260;2022-09-03T12:50:14;8.90;;;5.35;;
59308;SDS011;48433;53.016;-2.260;2022-09-03T13:00:44;8.95;;;5.60;;
59308;SDS011;48433;53.016;-2.260;2022-09-03T13:03:21;13.52;;;6.47;;
59308;SDS011;48433;53.016;-2.260;2022-09-03T13:05:56;11.00;;;5.88;;
59308;SDS011;48433;53.016;-2.260;2022-09-03T13:08:36;8.80;;;5.72;;
59308;SDS011;48433;53.016;-2.260;2022-09-03T13:11:10;9.82;;;6.55;;
59308;SDS011;48433;53.016;-2.260;2022-09-03T13:21:48;11.48;;;6.05;;
59308;SDS011;48433;53.016;-2.260;2022-09-03T13:27:45;8.68;;;5.88;;
59308;SDS011;48433;53.016;-2.260;2022-09-03T13:30:37;9.77;;;5.65;;
59308;SDS011;48433;53.016;-2.260;2022-09-03T13:38:30;8.32;;;5.53;;
59308;SDS011;48433;53.016;-2.260;2022-09-03T13:46:23;7.47;;;4.95;;
59308;SDS011;48433;53.016;-2.260;2022-09-03T13:55:17;9.18;;;5.32;;
59308;SDS011;48433;53.016;-2.260;2022-09-03T13:57:51;7.82;;;4.60;;
59308;SDS011;48433;53.016;-2.260;2022-09-03T14:00:33;8.00;;;4.78;;
59308;SDS011;48433;53.016;-2.260;2022-09-03T14:05:53;7.30;;;4.50;;
59308;SDS011;48433;53.016;-2.260;2022-09-03T14:08:48;10.30;;;5.00;;
59308;SDS011;48433;53.016;-2.260;2022-09-03T14:11:48;7.13;;;4.43;;
59308;SDS011;48433;53.016;-2.260;2022-09-03T14:20:05;8.27;;;4.82;;
59308;SDS011;48433;53.016;-2.260;2022-09-03T14:25:22;8.80;;;4.40;;
59308;SDS011;48433;53.016;-2.260;2022-09-03T14:27:52;6.47;;;3.95;;
59308;SDS011;48433;53.016;-2.260;2022-09-03T14:33:51;7.28;;;3.90;;
59308;SDS011;48433;53.016;-2.260;2022-09-03T14:36:36;7.63;;;4.60;;
59308;SDS011;48433;53.016;-2.260;2022-09-03T14:56:14;9.23;;;5.28;;
59308;SDS011;48433;53.016;-2.260;2022-09-03T15:02:17;9.40;;;5.30;;
59308;SDS011;48433;53.016;-2.260;2022-09-03T15:08:11;8.20;;;4.97;;
59308;SDS011;48433;53.016;-2.260;2022-09-03T15:11:02;8.25;;;5.03;;
59308;SDS011;48433;53.016;-2.260;2022-09-03T15:13:43;7.45;;;4.50;;
59308;SDS011;48433;53.016;-2.260;2022-09-03T15:16:32;7.45;;;5.07;;
59308;SDS011;48433;53.016;-2.260;2022-09-03T15:24:49;10.83;;;5.57;;
59308;SDS011;48433;53.016;-2.260;2022-09-03T15:27:41;8.05;;;4.80;;
59308;SDS011;48433;53.016;-2.260;2022-09-03T15:30:22;10.27;;;5.30;;
59308;SDS011;48433;53.016;-2.260;2022-09-03T15:33:03;13.05;;;5.30;;
59308;SDS011;48433;53.016;-2.260;2022-09-03T15:35:37;9.85;;;5.10;;
59308;SDS011;48433;53.016;-2.260;2022-09-03T15:41:09;7.63;;;5.13;;
59308;SDS011;48433;53.016;-2.260;2022-09-03T15:44:07;8.80;;;5.35;;
59308;SDS011;48433;53.016;-2.260;2022-09-03T16:01:19;8.23;;;5.38;;
59308;SDS011;48433;53.016;-2.260;2022-09-03T16:06:46;9.75;;;5.88;;
59308;SDS011;48433;53.016;-2.260;2022-09-03T16:13:00;9.98;;;5.95;;
59308;SDS011;48433;53.016;-2.260;2022-09-03T16:18:35;9.13;;;6.15;;
59308;SDS011;48433;53.016;-2.260;2022-09-03T16:23:54;8.23;;;5.25;;
59308;SDS011;48433;53.016;-2.260;2022-09-03T16:26:59;11.20;;;5.93;;
59308;SDS011;48433;53.016;-2.260;2022-09-03T16:29:43;8.65;;;5.47;;
59308;SDS011;48433;53.016;-2.260;2022-09-03T16:40:14;9.80;;;7.05;;
59308;SDS011;48433;53.016;-2.260;2022-09-03T16:48:23;10.70;;;6.95;;
59308;SDS011;48433;53.016;-2.260;2022-09-03T17:16:33;13.05;;;7.72;;
59308;SDS011;48433;53.016;-2.260;2022-09-03T17:30:20;11.82;;;7.80;;
59308;SDS011;48433;53.016;-2.260;2022-09-03T17:36:11;13.02;;;7.82;;
59308;SDS011;48433;53.016;-2.260;2022-09-03T17:49:20;10.20;;;7.68;;
59308;SDS011;48433;53.016;-2.260;2022-09-03T17:52:08;13.60;;;7.88;;
59308;SDS011;48433;53.016;-2.260;2022-09-03T18:03:43;11.02;;;8.38;;
59308;SDS011;48433;53.016;-2.260;2022-09-03T18:06:33;14.05;;;8.25;;
59308;SDS011;48433;53.016;-2.260;2022-09-03T18:14:48;13.48;;;9.10;;
59308;SDS011;48433;53.016;-2.260;2022-09-03T18:17:32;14.38;;;8.73;;
59308;SDS011;48433;53.016;-2.260;2022-09-03T18:20:09;15.68;;;9.13;;
59308;SDS011;48433;53.016;-2.260;2022-09-03T18:26:18;12.48;;;9.70;;
59308;SDS011;48433;53.016;-2.260;2022-09-03T18:29:11;13.63;;;10.07;;
59308;SDS011;48433;53.016;-2.260;2022-09-03T18:32:01;12.67;;;9.73;;
59308;SDS011;48433;53.016;-2.260;2022-09-03T18:34:48;15.88;;;10.38;;
59308;SDS011;48433;53.016;-2.260;2022-09-03T18:37:38;13.68;;;9.52;;
59308;SDS011;48433;53.016;-2.260;2022-09-03T18:40:27;14.70;;;9.88;;
59308;SDS011;48433;53.016;-2.260;2022-09-03T18:43:28;12.73;;;10.07;;
59308;SDS011;48433;53.016;-2.260;2022-09-03T18:49:52;14.27;;;9.27;;
59308;SDS011;48433;53.016;-2.260;2022-09-03T18:52:47;12.55;;;10.25;;
59308;SDS011;48433;53.016;-2.260;2022-09-03T18:56:13;13.45;;;9.60;;
59308;SDS011;48433;53.016;-2.260;2022-09-03T18:59:14;13.80;;;9.45;;
59308;SDS011;48433;53.016;-2.260;2022-09-03T19:06:15;15.18;;;10.23;;
59308;SDS011;48433;53.016;-2.260;2022-09-03T19:08:43;12.45;;;9.48;;
59308;SDS011;48433;53.016;-2.260;2022-09-03T19:15:16;13.98;;;9.38;;
59308;SDS011;48433;53.016;-2.260;2022-09-03T19:21:28;12.68;;;8.20;;
59308;SDS011;48433;53.016;-2.260;2022-09-03T19:24:27;12.57;;;6.70;;
59308;SDS011;48433;53.016;-2.260;2022-09-03T19:30:28;16.08;;;7.25;;
59308;SDS011;48433;53.016;-2.260;2022-09-03T19:33:33;12.38;;;7.13;;
59308;SDS011;48433;53.016;-2.260;2022-09-03T19:54:47;10.45;;;6.78;;
59308;SDS011;48433;53.016;-2.260;2022-09-03T19:57:38;12.30;;;6.90;;
59308;SDS011;48433;53.016;-2.260;2022-09-03T20:00:28;14.02;;;6.80;;
59308;SDS011;48433;53.016;-2.260;2022-09-03T20:03:17;9.23;;;6.55;;
59308;SDS011;48433;53.016;-2.260;2022-09-03T20:06:04;11.48;;;6.70;;
59308;SDS011;48433;53.016;-2.260;2022-09-03T20:08:52;11.55;;;6.82;;
59308;SDS011;48433;53.016;-2.260;2022-09-03T20:11:46;10.68;;;5.72;;
59308;SDS011;48433;53.016;-2.260;2022-09-03T20:14:14;10.40;;;5.90;;
59308;SDS011;48433;53.016;-2.260;2022-09-03T20:16:47;8.15;;;4.53;;
59308;SDS011;48433;53.016;-2.260;2022-09-03T20:22:22;8.43;;;4.35;;
59308;SDS011;48433;53.016;-2.260;2022-09-03T20:25:04;8.50;;;4.05;;
59308;SDS011;48433;53.016;-2.260;2022-09-03T20:30:42;8.82;;;3.85;;
59308;SDS011;48433;53.016;-2.260;2022-09-03T20:47:06;8.98;;;3.58;;
59308;SDS011;48433;53.016;-2.260;2022-09-03T20:50:01;8.10;;;3.90;;
59308;SDS011;48433;53.016;-2.260;2022-09-03T20:55:41;7.30;;;3.50;;
59308;SDS011;48433;53.016;-2.260;2022-09-03T20:58:16;8.70;;;3.90;;
59308;SDS011;48433;53.016;-2.260;2022-09-03T21:00:47;10.52;;;3.75;;
59308;SDS011;48433;53.016;-2.260;2022-09-03T21:11:53;8.68;;;3.13;;
59308;SDS011;48433;53.016;-2.260;2022-09-03T21:14:41;7.00;;;2.90;;
59308;SDS011;48433;53.016;-2.260;2022-09-03T21:17:47;7.53;;;3.20;;
59308;SDS011;48433;53.016;-2.260;2022-09-03T21:23:14;9.02;;;2.72;;
59308;SDS011;48433;53.016;-2.260;2022-09-03T21:28:36;6.78;;;2.15;;
59308;SDS011;48433;53.016;-2.260;2022-09-03T21:31:12;6.10;;;2.30;;
59308;SDS011;48433;53.016;-2.260;2022-09-03T21:33:46;8.02;;;3.28;;
59308;SDS011;48433;53.016;-2.260;2022-09-03T21:36:29;5.78;;;2.45;;
59308;SDS011;48433;53.016;-2.260;2022-09-03T21:39:04;7.30;;;2.42;;